Time;durP1;ratioP1;P1;durP2;ratioP2;P2;SDS_P1;SDS_P2;PMS_P1;PMS_P2;Temp;Humidity;BMP_temperature;BMP_pressure;BME280_temperature;BME280_humidity;BME280_pressure;Samples;Min_cycle;Max_cycle;Signal;HPM_P1;HPM_P2
2021/12/25 00:02:07;;;;;;;6.15;4.00;;;;;;;;;;5025695;28;20048;-61
2021/12/25 00:04:32;;;;;;;4.40;3.85;;;;;;;;;;5024988;28;20037;-59
2021/12/25 00:06:57;;;;;;;4.40;3.40;;;;;;;;;;5024996;28;20037;-58
2021/12/25 00:09:23;;;;;;;7.00;4.10;;;;;;;;;;5024594;28;20026;-62
2021/12/25 00:11:48;;;;;;;6.57;4.82;;;;;;;;;;5039574;28;20049;-59
2021/12/25 00:14:14;;;;;;;13.05;7.50;;;;;;;;;;5025333;28;20025;-61
2021/12/25 00:16:40;;;;;;;14.75;6.88;;;;;;;;;;5025344;28;20483;-61
2021/12/25 00:19:06;;;;;;;16.95;7.13;;;;;;;;;;5025739;28;20148;-60
2021/12/25 00:21:32;;;;;;;15.02;7.43;;;;;;;;;;5021973;28;20393;-61
2021/12/25 00:23:57;;;;;;;15.90;7.20;;;;;;;;;;5027070;28;20108;-61
2021/12/25 00:26:37;;;;;;;12.50;8.10;;;;;;;;;;5022224;28;20026;-58
2021/12/25 00:29:26;;;;;;;13.30;7.40;;;;;;;;;;5024602;28;20363;-60
2021/12/25 00:31:56;;;;;;;13.13;7.82;;;;;;;;;;5022923;28;20665;-58
2021/12/25 00:34:23;;;;;;;13.30;6.90;;;;;;;;;;5026120;28;20033;-61
2021/12/25 00:36:50;;;;;;;10.93;7.00;;;;;;;;;;5022547;28;20111;-60
2021/12/25 00:39:16;;;;;;;10.52;6.68;;;;;;;;;;5043673;28;20036;-60
2021/12/25 00:41:41;;;;;;;10.57;6.88;;;;;;;;;;5045668;28;20041;-60
2021/12/25 00:44:07;;;;;;;11.18;6.38;;;;;;;;;;5045099;28;20499;-62
2021/12/25 00:46:33;;;;;;;10.63;6.70;;;;;;;;;;5043330;28;21572;-61
2021/12/25 00:48:58;;;;;;;9.32;6.35;;;;;;;;;;5045866;28;20060;-59
2021/12/25 00:51:24;;;;;;;9.32;6.28;;;;;;;;;;5044020;28;20119;-61
2021/12/25 00:53:50;;;;;;;12.80;6.43;;;;;;;;;;5044457;28;20658;-59
2021/12/25 00:56:16;;;;;;;7.90;5.43;;;;;;;;;;5042210;28;20013;-57
2021/12/25 00:58:41;;;;;;;11.85;6.13;;;;;;;;;;5044701;28;20122;-61
2021/12/25 01:01:07;;;;;;;9.57;6.35;;;;;;;;;;5042545;28;20098;-60
2021/12/25 01:03:33;;;;;;;9.98;6.30;;;;;;;;;;5042974;28;20354;-60
2021/12/25 01:05:59;;;;;;;9.60;6.47;;;;;;;;;;5043371;28;20492;-62
2021/12/25 01:08:25;;;;;;;8.77;5.80;;;;;;;;;;5042403;28;20029;-63
2021/12/25 01:10:50;;;;;;;8.93;5.63;;;;;;;;;;5044016;28;20450;-62
2021/12/25 01:13:29;;;;;;;12.10;6.50;;;;;;;;;;5045762;28;20044;-62
2021/12/25 01:26:42;;;;;;;8.55;5.50;;;;;;;;;;4999899;28;20040;-60
2021/12/25 01:47:47;;;;;;;18.08;8.18;;;;;;;;;;5020428;28;20199;-58
2021/12/25 01:50:14;;;;;;;12.93;6.97;;;;;;;;;;5020885;28;20037;-58
2021/12/25 01:52:39;;;;;;;12.75;6.78;;;;;;;;;;5019723;28;20445;-62
2021/12/25 01:55:08;;;;;;;11.70;6.47;;;;;;;;;;5019873;28;20025;-59
2021/12/25 01:57:35;;;;;;;13.18;7.20;;;;;;;;;;5020444;28;20052;-61
2021/12/25 02:00:06;;;;;;;9.82;6.20;;;;;;;;;;5020138;28;20553;-61
2021/12/25 02:02:32;;;;;;;9.52;6.43;;;;;;;;;;5020569;28;20053;-58
2021/12/25 02:04:57;;;;;;;8.48;5.95;;;;;;;;;;5020706;28;20021;-59
2021/12/25 02:07:23;;;;;;;10.38;5.68;;;;;;;;;;5020469;28;20508;-59
2021/12/25 02:09:49;;;;;;;9.38;5.18;;;;;;;;;;5021195;28;20140;-58
2021/12/25 02:12:15;;;;;;;10.82;5.82;;;;;;;;;;5021411;28;20030;-58
2021/12/25 02:14:44;;;;;;;9.75;5.50;;;;;;;;;;5023548;28;20040;-57
2021/12/25 02:19:52;;;;;;;9.65;5.65;;;;;;;;;;5026105;28;20021;-58
2021/12/25 02:22:19;;;;;;;6.57;5.18;;;;;;;;;;5025878;28;20033;-59
2021/12/25 02:24:45;;;;;;;9.40;5.78;;;;;;;;;;5025154;28;20044;-56
2021/12/25 02:27:11;;;;;;;9.05;5.97;;;;;;;;;;5007188;28;20100;-57
2021/12/25 02:29:37;;;;;;;9.43;4.82;;;;;;;;;;5025333;28;20029;-60
2021/12/25 02:32:04;;;;;;;8.30;5.35;;;;;;;;;;5025381;28;20037;-59
2021/12/25 02:34:29;;;;;;;8.32;5.22;;;;;;;;;;5023972;28;20041;-59
2021/12/25 02:36:54;;;;;;;7.15;5.03;;;;;;;;;;5027237;28;20044;-60
2021/12/25 02:39:20;;;;;;;8.15;5.07;;;;;;;;;;5024418;28;20040;-60
2021/12/25 02:41:45;;;;;;;6.85;5.10;;;;;;;;;;5025668;28;20057;-60
2021/12/25 02:44:11;;;;;;;8.52;5.55;;;;;;;;;;5024528;28;20484;-58
2021/12/25 02:46:36;;;;;;;7.93;5.35;;;;;;;;;;5026804;28;20029;-59
2021/12/25 02:49:02;;;;;;;9.52;5.25;;;;;;;;;;5023938;28;20052;-59
2021/12/25 02:51:28;;;;;;;6.20;5.03;;;;;;;;;;5024786;28;20029;-59
2021/12/25 02:53:54;;;;;;;7.57;4.97;;;;;;;;;;5024797;28;20059;-59
2021/12/25 02:56:20;;;;;;;9.63;5.80;;;;;;;;;;5006333;28;20457;-57
2021/12/25 02:58:46;;;;;;;8.27;5.47;;;;;;;;;;5005900;28;21338;-59
2021/12/25 03:01:17;;;;;;;8.02;5.40;;;;;;;;;;5024709;28;20405;-58
2021/12/25 03:03:43;;;;;;;8.75;5.20;;;;;;;;;;5023467;28;20043;-58
2021/12/25 03:06:10;;;;;;;8.80;5.38;;;;;;;;;;5026088;28;20044;-59
2021/12/25 03:08:37;;;;;;;7.38;5.60;;;;;;;;;;5023939;28;20028;-59
2021/12/25 03:11:06;;;;;;;7.72;4.93;;;;;;;;;;5023250;28;20059;-59
2021/12/25 03:15:59;;;;;;;8.95;5.05;;;;;;;;;;5023427;28;20263;-59
2021/12/25 03:18:28;;;;;;;7.60;5.22;;;;;;;;;;5004884;28;20036;-58
2021/12/25 03:20:58;;;;;;;7.40;4.70;;;;;;;;;;5023703;28;20037;-58
2021/12/25 03:23:26;;;;;;;8.80;4.95;;;;;;;;;;5025106;28;20033;-58
2021/12/25 03:25:53;;;;;;;6.85;5.10;;;;;;;;;;5027786;28;21323;-54
2021/12/25 03:28:23;;;;;;;9.57;5.38;;;;;;;;;;5025643;28;20029;-59
2021/12/25 03:30:49;;;;;;;7.15;5.35;;;;;;;;;;5009169;28;20033;-58
2021/12/25 03:33:17;;;;;;;7.30;5.07;;;;;;;;;;5026446;28;20025;-58
2021/12/25 03:35:43;;;;;;;7.57;4.85;;;;;;;;;;5025847;28;20120;-58
2021/12/25 03:38:12;;;;;;;7.13;5.00;;;;;;;;;;5025866;28;20144;-56
2021/12/25 03:40:39;;;;;;;9.00;5.05;;;;;;;;;;5009151;28;20028;-58
2021/12/25 03:43:05;;;;;;;6.43;4.53;;;;;;;;;;5025713;28;20032;-59
2021/12/25 03:45:32;;;;;;;7.18;4.95;;;;;;;;;;5008442;28;20048;-58
2021/12/25 03:48:29;;;;;;;9.75;4.75;;;;;;;;;;5025447;28;20037;-58
2021/12/25 03:59:00;;;;;;;7.38;4.88;;;;;;;;;;5026665;28;20095;-58
2021/12/25 04:06:46;;;;;;;7.65;4.72;;;;;;;;;;5025474;28;20148;-59
2021/12/25 04:09:25;;;;;;;6.63;4.60;;;;;;;;;;5025004;28;20104;-58
2021/12/25 04:11:51;;;;;;;7.95;4.88;;;;;;;;;;5024361;28;20026;-58
2021/12/25 04:14:16;;;;;;;6.63;4.90;;;;;;;;;;5024963;28;20036;-58
2021/12/25 04:16:42;;;;;;;6.93;4.40;;;;;;;;;;5025445;28;20409;-57
2021/12/25 04:19:08;;;;;;;6.43;4.25;;;;;;;;;;5026934;28;20430;-64
2021/12/25 04:21:35;;;;;;;7.68;5.00;;;;;;;;;;5025543;28;20053;-58
2021/12/25 04:24:00;;;;;;;6.93;4.25;;;;;;;;;;5025002;28;20496;-58
2021/12/25 04:26:26;;;;;;;6.07;4.60;;;;;;;;;;5026525;28;20029;-54
2021/12/25 04:29:16;;;;;;;7.25;4.15;;;;;;;;;;5008941;28;20025;-58
2021/12/25 04:32:12;;;;;;;6.18;4.30;;;;;;;;;;5024407;28;20532;-59
2021/12/25 05:04:19;;;;;;;10.02;4.38;;;;;;;;;;5025043;28;20033;-59
2021/12/25 05:06:45;;;;;;;7.72;4.50;;;;;;;;;;5026529;28;20045;-58
2021/12/25 05:09:10;;;;;;;8.07;4.47;;;;;;;;;;5026738;28;20415;-52
2021/12/25 05:11:36;;;;;;;5.93;4.15;;;;;;;;;;5023836;28;20128;-51
2021/12/25 05:14:01;;;;;;;5.60;3.97;;;;;;;;;;5024424;28;20033;-49
2021/12/25 05:16:27;;;;;;;4.47;3.65;;;;;;;;;;5023429;28;20017;-51
2021/12/25 05:18:53;;;;;;;7.32;3.55;;;;;;;;;;5024878;28;20046;-49
2021/12/25 05:21:19;;;;;;;5.43;3.50;;;;;;;;;;5024934;28;20026;-48
2021/12/25 05:23:45;;;;;;;4.53;3.65;;;;;;;;;;5024578;28;20468;-47
2021/12/25 05:26:10;;;;;;;6.07;3.95;;;;;;;;;;5024981;28;20022;-49
2021/12/25 05:28:41;;;;;;;5.40;3.90;;;;;;;;;;5024293;28;20631;-48
2021/12/25 05:31:08;;;;;;;7.22;3.60;;;;;;;;;;5023101;28;20029;-52
2021/12/25 05:33:34;;;;;;;5.72;3.50;;;;;;;;;;5006205;28;20037;-45
2021/12/25 05:36:00;;;;;;;5.13;3.50;;;;;;;;;;5025547;28;20045;-49
2021/12/25 05:38:26;;;;;;;3.97;3.25;;;;;;;;;;5023981;28;20456;-50
2021/12/25 05:40:52;;;;;;;4.72;3.17;;;;;;;;;;5023412;28;20037;-49
2021/12/25 05:43:17;;;;;;;4.20;3.00;;;;;;;;;;5023397;28;20125;-46
2021/12/25 05:45:43;;;;;;;5.55;3.20;;;;;;;;;;5020476;28;20026;-48
2021/12/25 05:48:10;;;;;;;5.45;3.40;;;;;;;;;;5025491;28;20098;-48
2021/12/25 05:50:36;;;;;;;4.80;3.50;;;;;;;;;;5006897;28;20037;-47
2021/12/25 05:53:02;;;;;;;3.38;2.90;;;;;;;;;;5025910;28;20099;-48
2021/12/25 05:55:27;;;;;;;5.32;3.15;;;;;;;;;;5006901;28;20040;-51
2021/12/25 05:57:53;;;;;;;10.77;7.40;;;;;;;;;;5023794;28;20041;-48
2021/12/25 06:00:20;;;;;;;4.47;3.30;;;;;;;;;;5024246;28;20113;-48
2021/12/25 06:02:46;;;;;;;4.95;3.22;;;;;;;;;;5024617;28;20083;-45
2021/12/25 06:05:12;;;;;;;3.70;3.25;;;;;;;;;;5022582;28;20061;-49
2021/12/25 06:07:37;;;;;;;4.38;2.88;;;;;;;;;;5023816;28;20087;-51
2021/12/25 06:10:07;;;;;;;4.05;2.90;;;;;;;;;;5023510;28;20104;-49
2021/12/25 06:12:32;;;;;;;4.95;2.88;;;;;;;;;;5024506;28;20113;-50
2021/12/25 06:15:01;;;;;;;4.18;3.08;;;;;;;;;;5022896;28;20109;-48
2021/12/25 06:17:27;;;;;;;4.05;3.45;;;;;;;;;;5022879;28;20029;-46
2021/12/25 06:19:52;;;;;;;5.53;3.30;;;;;;;;;;5023452;28;20421;-47
2021/12/25 06:22:18;;;;;;;4.20;2.97;;;;;;;;;;5024758;28;20025;-48
2021/12/25 06:24:49;;;;;;;3.28;2.70;;;;;;;;;;5023889;28;20037;-50
2021/12/25 06:27:16;;;;;;;3.90;3.08;;;;;;;;;;5023516;28;20107;-46
2021/12/25 06:29:41;;;;;;;6.57;3.33;;;;;;;;;;5023736;28;20149;-46
2021/12/25 06:32:07;;;;;;;4.05;3.30;;;;;;;;;;5024625;28;20111;-50
2021/12/25 06:34:32;;;;;;;6.00;3.33;;;;;;;;;;5024327;28;20060;-48
2021/12/25 06:36:57;;;;;;;4.35;3.38;;;;;;;;;;5025069;28;20502;-47
2021/12/25 06:39:23;;;;;;;4.30;3.33;;;;;;;;;;5005947;28;20033;-52
2021/12/25 06:41:49;;;;;;;4.93;3.20;;;;;;;;;;5022257;28;20029;-47
2021/12/25 06:44:14;;;;;;;5.10;3.75;;;;;;;;;;5022648;28;20080;-48
2021/12/25 06:46:40;;;;;;;6.18;4.30;;;;;;;;;;5019938;28;20109;-50
2021/12/25 06:49:05;;;;;;;8.13;5.60;;;;;;;;;;5021205;28;20116;-46
2021/12/25 06:51:34;;;;;;;7.72;5.70;;;;;;;;;;5023270;28;20069;-52
2021/12/25 06:54:00;;;;;;;9.52;6.05;;;;;;;;;;5022843;28;20050;-47
2021/12/25 06:56:25;;;;;;;9.43;6.03;;;;;;;;;;5021687;28;20029;-49
2021/12/25 06:58:51;;;;;;;8.32;6.18;;;;;;;;;;5022901;28;20063;-47
2021/12/25 07:01:16;;;;;;;10.13;6.40;;;;;;;;;;5024547;28;20025;-51
2021/12/25 07:03:41;;;;;;;8.95;6.20;;;;;;;;;;5005310;28;20509;-47
2021/12/25 07:06:07;;;;;;;9.98;6.50;;;;;;;;;;5023616;28;20029;-47
2021/12/25 07:08:32;;;;;;;9.38;6.28;;;;;;;;;;5023311;28;20056;-50
2021/12/25 07:10:57;;;;;;;10.43;6.57;;;;;;;;;;5022009;28;20029;-50
2021/12/25 07:13:23;;;;;;;9.98;6.75;;;;;;;;;;5004626;28;20026;-48
2021/12/25 07:15:48;;;;;;;8.73;6.38;;;;;;;;;;5020761;28;20060;-46
2021/12/25 07:18:14;;;;;;;10.60;7.00;;;;;;;;;;5022261;28;20973;-46
2021/12/25 07:20:40;;;;;;;12.10;6.50;;;;;;;;;;5021826;28;20029;-50
2021/12/25 07:23:06;;;;;;;10.38;6.82;;;;;;;;;;5022413;28;20072;-49
2021/12/25 07:25:31;;;;;;;8.07;6.38;;;;;;;;;;5022403;28;20041;-46
2021/12/25 07:27:57;;;;;;;7.93;5.18;;;;;;;;;;5021674;28;20044;-48
2021/12/25 07:30:22;;;;;;;6.97;4.53;;;;;;;;;;5021767;28;20504;-47
2021/12/25 07:32:48;;;;;;;7.70;4.70;;;;;;;;;;5005633;28;20035;-46
2021/12/25 07:35:13;;;;;;;7.28;4.72;;;;;;;;;;5022615;28;20060;-48
2021/12/25 07:37:39;;;;;;;7.05;4.85;;;;;;;;;;5021943;28;20044;-49
2021/12/25 07:40:08;;;;;;;7.00;4.30;;;;;;;;;;5022868;28;20071;-48
2021/12/25 07:42:34;;;;;;;5.13;3.17;;;;;;;;;;5023084;28;20100;-52
2021/12/25 07:45:04;;;;;;;4.78;3.30;;;;;;;;;;5004787;28;20434;-51
2021/12/25 07:47:32;;;;;;;5.30;3.00;;;;;;;;;;5006582;28;20029;-48
2021/12/25 07:49:59;;;;;;;3.13;2.70;;;;;;;;;;5023159;28;20040;-49
2021/12/25 07:52:29;;;;;;;4.35;2.97;;;;;;;;;;5022141;28;20029;-49
2021/12/25 07:54:54;;;;;;;5.70;2.80;;;;;;;;;;5005859;28;20033;-46
2021/12/25 07:57:20;;;;;;;7.63;2.88;;;;;;;;;;5023521;28;20025;-47
2021/12/25 07:59:45;;;;;;;3.63;2.60;;;;;;;;;;5020746;28;20033;-49
2021/12/25 08:02:11;;;;;;;7.05;3.00;;;;;;;;;;5023645;28;20084;-47
2021/12/25 08:04:36;;;;;;;3.47;2.40;;;;;;;;;;5022459;28;20037;-51
2021/12/25 08:07:02;;;;;;;4.82;2.22;;;;;;;;;;5024572;28;20112;-48
2021/12/25 08:09:29;;;;;;;3.53;1.92;;;;;;;;;;5025813;28;20070;-51
2021/12/25 08:12:02;;;;;;;2.42;1.95;;;;;;;;;;5025845;28;20044;-49
2021/12/25 08:14:28;;;;;;;2.38;2.10;;;;;;;;;;5025755;28;20143;-48
2021/12/25 08:16:55;;;;;;;2.22;2.00;;;;;;;;;;5027818;28;20525;-48
2021/12/25 08:19:22;;;;;;;2.03;1.83;;;;;;;;;;5025986;28;20049;-50
2021/12/25 08:21:48;;;;;;;2.22;1.63;;;;;;;;;;5026582;28;20328;-50
2021/12/25 08:24:14;;;;;;;2.80;1.73;;;;;;;;;;5025691;28;20048;-52
2021/12/25 08:26:40;;;;;;;3.25;2.00;;;;;;;;;;5025657;28;20037;-49
2021/12/25 08:29:06;;;;;;;5.10;1.80;;;;;;;;;;5026101;28;21112;-46
2021/12/25 08:31:31;;;;;;;3.90;1.95;;;;;;;;;;5024646;28;20486;-50
2021/12/25 08:33:56;;;;;;;1.75;1.65;;;;;;;;;;5026084;28;20025;-48
2021/12/25 08:36:22;;;;;;;2.20;1.80;;;;;;;;;;5027985;28;20057;-48
2021/12/25 08:38:47;;;;;;;3.55;1.63;;;;;;;;;;5008049;28;20032;-47
2021/12/25 08:41:13;;;;;;;3.05;1.63;;;;;;;;;;5029875;28;20032;-47
2021/12/25 08:43:46;;;;;;;2.20;1.55;;;;;;;;;;5026441;28;20060;-49
2021/12/25 08:46:17;;;;;;;1.77;1.52;;;;;;;;;;5025662;28;20592;-48
2021/12/25 08:48:43;;;;;;;2.53;2.00;;;;;;;;;;5025531;28;20486;-47
2021/12/25 08:51:09;;;;;;;4.57;2.10;;;;;;;;;;5024721;28;20044;-46
2021/12/25 08:53:35;;;;;;;2.17;1.90;;;;;;;;;;5024824;28;20028;-48
2021/12/25 08:56:01;;;;;;;1.70;1.60;;;;;;;;;;5024863;28;20033;-49
2021/12/25 08:58:30;;;;;;;2.67;1.60;;;;;;;;;;5026180;28;20037;-51
2021/12/25 09:00:57;;;;;;;1.77;1.50;;;;;;;;;;5024084;28;20026;-52
2021/12/25 09:03:25;;;;;;;1.70;1.48;;;;;;;;;;5025427;28;20041;-49
2021/12/25 09:05:53;;;;;;;1.23;0.90;;;;;;;;;;5024254;28;20025;-50
2021/12/25 09:08:18;;;;;;;2.63;0.75;;;;;;;;;;5025750;28;20033;-47
2021/12/25 09:10:44;;;;;;;1.27;0.70;;;;;;;;;;5025926;28;20464;-48
2021/12/25 09:13:09;;;;;;;2.17;0.90;;;;;;;;;;5023735;28;20067;-50
2021/12/25 09:15:34;;;;;;;1.15;0.70;;;;;;;;;;5026237;28;20029;-50
2021/12/25 09:18:00;;;;;;;0.75;0.60;;;;;;;;;;5023825;28;20412;-47
2021/12/25 09:20:25;;;;;;;1.45;0.73;;;;;;;;;;5025432;28;20025;-49
2021/12/25 09:22:51;;;;;;;0.80;0.57;;;;;;;;;;5024180;28;20029;-51
2021/12/25 09:25:16;;;;;;;0.47;0.40;;;;;;;;;;5024700;28;20457;-47
2021/12/25 09:27:43;;;;;;;1.63;0.60;;;;;;;;;;5024661;28;21237;-49
2021/12/25 09:30:10;;;;;;;0.68;0.68;;;;;;;;;;5025582;28;20033;-51
2021/12/25 09:32:35;;;;;;;0.65;0.60;;;;;;;;;;5024653;28;20033;-49
2021/12/25 09:35:01;;;;;;;0.73;0.50;;;;;;;;;;5026176;28;20038;-47
2021/12/25 09:37:28;;;;;;;0.50;0.50;;;;;;;;;;5023043;28;20033;-48
2021/12/25 09:39:54;;;;;;;0.55;0.55;;;;;;;;;;5026053;28;20025;-48
2021/12/25 09:42:22;;;;;;;0.60;0.55;;;;;;;;;;5024885;28;20084;-51
2021/12/25 09:44:48;;;;;;;0.88;0.52;;;;;;;;;;5024390;28;20063;-52
2021/12/25 09:47:13;;;;;;;0.85;0.77;;;;;;;;;;5024746;28;20033;-46
2021/12/25 09:49:38;;;;;;;0.90;0.80;;;;;;;;;;5024730;28;20057;-48
2021/12/25 09:52:04;;;;;;;0.70;0.70;;;;;;;;;;5023934;28;20037;-47
2021/12/25 09:54:30;;;;;;;1.50;0.50;;;;;;;;;;5022945;28;20049;-52
2021/12/25 09:56:58;;;;;;;1.48;0.28;;;;;;;;;;5023353;28;20033;-51
2021/12/25 09:59:24;;;;;;;0.43;0.43;;;;;;;;;;5025239;28;20052;-47
2021/12/25 10:01:53;;;;;;;0.40;0.40;;;;;;;;;;5006690;28;20029;-49
2021/12/25 10:04:31;;;;;;;0.52;0.40;;;;;;;;;;5025637;28;20504;-46
2021/12/25 10:06:56;;;;;;;0.47;0.38;;;;;;;;;;5022049;28;20077;-49
2021/12/25 10:09:24;;;;;;;0.75;0.40;;;;;;;;;;5024728;28;21413;-48
2021/12/25 10:12:03;;;;;;;0.40;0.40;;;;;;;;;;5023614;28;20029;-48
2021/12/25 10:14:30;;;;;;;0.50;0.50;;;;;;;;;;5024805;28;20025;-49
2021/12/25 10:16:55;;;;;;;0.55;0.50;;;;;;;;;;5005561;28;20465;-47
2021/12/25 10:19:23;;;;;;;0.70;0.50;;;;;;;;;;5024000;28;20052;-47
2021/12/25 10:22:08;;;;;;;6.72;0.75;;;;;;;;;;5022987;28;20068;-49
2021/12/25 10:24:47;;;;;;;0.68;0.40;;;;;;;;;;5024614;28;20039;-46
2021/12/25 10:27:20;;;;;;;0.63;0.30;;;;;;;;;;5004001;28;20140;-46
2021/12/25 10:29:46;;;;;;;0.60;0.60;;;;;;;;;;5021330;28;20037;-49
2021/12/25 10:32:19;;;;;;;0.38;0.38;;;;;;;;;;5020838;28;20033;-48
2021/12/25 10:34:45;;;;;;;0.30;0.30;;;;;;;;;;5023606;28;20258;-51
2021/12/25 10:37:13;;;;;;;0.77;0.40;;;;;;;;;;5022988;28;20036;-49
2021/12/25 10:39:39;;;;;;;0.65;0.22;;;;;;;;;;5024042;28;20026;-46
2021/12/25 10:42:11;;;;;;;1.85;0.20;;;;;;;;;;5021976;28;20043;-51
2021/12/25 10:44:38;;;;;;;0.77;0.30;;;;;;;;;;5024449;28;20497;-47
2021/12/25 10:47:10;;;;;;;0.20;0.20;;;;;;;;;;5022863;28;20485;-48
2021/12/25 10:49:45;;;;;;;0.75;0.55;;;;;;;;;;5024027;28;20341;-47
2021/12/25 10:52:29;;;;;;;0.60;0.60;;;;;;;;;;5022383;28;20433;-50
2021/12/25 10:54:56;;;;;;;0.90;0.50;;;;;;;;;;5023592;28;20053;-49
2021/12/25 10:57:40;;;;;;;1.27;0.50;;;;;;;;;;5007011;28;20029;-48
2021/12/25 11:00:10;;;;;;;1.05;0.68;;;;;;;;;;5021854;28;20032;-50
2021/12/25 11:02:45;;;;;;;0.30;0.20;;;;;;;;;;5005198;28;20126;-50
2021/12/25 11:05:28;;;;;;;0.90;0.45;;;;;;;;;;5019641;28;20473;-47
2021/12/25 11:08:08;;;;;;;;;;;;;;;;;;5005722;28;20028;-44
2021/12/25 11:10:45;;;;;;;0.30;0.30;;;;;;;;;;5024189;28;19927;-49
2021/12/25 11:13:56;;;;;;;0.30;0.28;;;;;;;;;;5023177;28;20053;-48
2021/12/25 11:16:27;;;;;;;1.30;0.60;;;;;;;;;;5018586;28;20529;-50
2021/12/25 11:19:03;;;;;;;0.70;0.40;;;;;;;;;;5021804;28;20083;-47
2021/12/25 11:21:52;;;;;;;0.35;0.30;;;;;;;;;;5023178;28;20083;-50
2021/12/25 11:24:23;;;;;;;0.77;0.35;;;;;;;;;;5011217;28;20528;-51
2021/12/25 11:27:02;;;;;;;1.90;0.52;;;;;;;;;;5005315;28;20029;-49
2021/12/25 11:29:30;;;;;;;0.77;0.52;;;;;;;;;;5023716;28;20045;-52
2021/12/25 11:31:58;;;;;;;2.00;0.50;;;;;;;;;;5020369;28;20536;-51
2021/12/25 11:34:26;;;;;;;0.40;0.38;;;;;;;;;;5021773;28;20035;-49
2021/12/25 11:36:54;;;;;;;0.47;0.40;;;;;;;;;;5022222;28;20021;-51
2021/12/25 11:39:22;;;;;;;1.02;0.50;;;;;;;;;;5028104;28;20044;-51
2021/12/25 11:41:49;;;;;;;0.57;0.40;;;;;;;;;;5024097;28;20091;-50
2021/12/25 11:44:38;;;;;;;0.55;0.50;;;;;;;;;;5031317;28;20046;-49
2021/12/25 11:47:06;;;;;;;1.15;0.68;;;;;;;;;;5029718;28;20037;-50
2021/12/25 11:49:33;;;;;;;1.85;0.85;;;;;;;;;;5031235;28;20036;-47
2021/12/25 11:52:18;;;;;;;0.60;0.40;;;;;;;;;;5029300;28;20030;-48
2021/12/25 11:58:37;;;;;;;0.63;0.60;;;;;;;;;;4951097;28;20049;-49
2021/12/25 12:00:42;;;;;;;1.45;0.50;;;;;;;;;;5017304;28;20311;-47
2021/12/25 12:03:08;;;;;;;0.40;0.40;;;;;;;;;;5026183;28;20067;-47
2021/12/25 12:05:36;;;;;;;0.57;0.40;;;;;;;;;;5028456;28;20037;-50
2021/12/25 12:08:06;;;;;;;1.85;0.73;;;;;;;;;;5012858;28;20116;-45
2021/12/25 12:10:44;;;;;;;0.43;0.38;;;;;;;;;;5031660;28;20087;-47
2021/12/25 12:13:32;;;;;;;0.52;0.30;;;;;;;;;;5027520;28;20075;-47
2021/12/25 12:16:03;;;;;;;0.70;0.43;;;;;;;;;;5029858;28;20650;-50
2021/12/25 12:18:33;;;;;;;0.50;0.40;;;;;;;;;;5029804;28;20036;-52
2021/12/25 12:21:18;;;;;;;0.40;0.40;;;;;;;;;;5026958;28;20035;-47
2021/12/25 12:23:57;;;;;;;0.52;0.30;;;;;;;;;;5029122;28;20162;-48
2021/12/25 12:26:47;;;;;;;0.40;0.40;;;;;;;;;;5029274;28;20033;-50
2021/12/25 12:29:34;;;;;;;0.40;0.40;;;;;;;;;;5018970;28;20128;-52
2021/12/25 12:31:59;;;;;;;0.40;0.20;;;;;;;;;;5025086;28;21131;-48
2021/12/25 12:34:40;;;;;;;0.22;0.22;;;;;;;;;;5006110;28;20025;-49
2021/12/25 12:37:16;;;;;;;0.40;0.40;;;;;;;;;;5028320;28;20032;-46
2021/12/25 12:39:42;;;;;;;0.35;0.32;;;;;;;;;;5047934;28;20647;-47
2021/12/25 12:42:11;;;;;;;0.30;0.30;;;;;;;;;;5045160;28;20079;-49
2021/12/25 12:44:37;;;;;;;0.30;0.30;;;;;;;;;;5046538;28;20052;-48
2021/12/25 12:47:14;;;;;;;0.40;0.40;;;;;;;;;;5045461;28;20025;-48
2021/12/25 12:49:39;;;;;;;0.47;0.47;;;;;;;;;;5046137;28;20040;-51
2021/12/25 12:52:17;;;;;;;0.77;0.63;;;;;;;;;;5045887;28;20013;-48
2021/12/25 12:55:01;;;;;;;0.30;0.30;;;;;;;;;;5045764;28;20384;-48
2021/12/25 12:57:31;;;;;;;0.38;0.32;;;;;;;;;;5046084;28;20021;-47
2021/12/25 13:00:19;;;;;;;0.73;0.55;;;;;;;;;;5046492;28;20041;-53
2021/12/25 13:02:48;;;;;;;1.65;0.40;;;;;;;;;;5046481;28;20025;-50
2021/12/25 13:05:18;;;;;;;0.80;0.80;;;;;;;;;;5045531;28;20110;-47
2021/12/25 13:07:46;;;;;;;0.30;0.30;;;;;;;;;;5045887;28;20119;-49
2021/12/25 13:10:23;;;;;;;0.40;0.32;;;;;;;;;;5043494;28;20032;-49
2021/12/25 13:12:50;;;;;;;1.23;0.50;;;;;;;;;;5045912;28;20032;-51
2021/12/25 13:15:25;;;;;;;0.52;0.52;;;;;;;;;;5045089;28;20310;-46
2021/12/25 13:17:57;;;;;;;0.50;0.50;;;;;;;;;;5046208;28;20441;-49
2021/12/25 13:20:33;;;;;;;0.60;0.60;;;;;;;;;;5044378;28;20388;-49
2021/12/25 13:23:00;;;;;;;0.60;0.60;;;;;;;;;;5045240;28;20481;-47
2021/12/25 13:25:26;;;;;;;0.85;0.85;;;;;;;;;;5042863;28;20021;-49
2021/12/25 13:28:01;;;;;;;0.60;0.60;;;;;;;;;;5046087;28;20075;-52
2021/12/25 13:30:28;;;;;;;0.70;0.63;;;;;;;;;;5044615;28;20037;-50
2021/12/25 13:32:54;;;;;;;0.68;0.60;;;;;;;;;;5046122;28;20029;-49
2021/12/25 13:35:24;;;;;;;1.08;0.80;;;;;;;;;;5044333;28;20416;-49
2021/12/25 13:37:59;;;;;;;0.70;0.70;;;;;;;;;;5027221;28;20370;-46
2021/12/25 13:40:24;;;;;;;0.82;0.75;;;;;;;;;;5025490;28;20623;-48
2021/12/25 13:42:51;;;;;;;0.75;0.75;;;;;;;;;;4991834;28;20033;-46
2021/12/25 13:45:19;;;;;;;1.00;0.73;;;;;;;;;;5025358;28;20025;-49
2021/12/25 13:47:44;;;;;;;0.70;0.70;;;;;;;;;;5025800;28;20172;-48
2021/12/25 13:50:10;;;;;;;0.80;0.68;;;;;;;;;;5006282;28;20062;-51
2021/12/25 13:52:38;;;;;;;1.35;0.90;;;;;;;;;;5008075;28;20021;-45
2021/12/25 13:55:10;;;;;;;0.80;0.70;;;;;;;;;;5023433;28;20064;-49
2021/12/25 13:57:40;;;;;;;0.80;0.80;;;;;;;;;;5025190;28;20044;-45
2021/12/25 14:00:15;;;;;;;0.57;0.55;;;;;;;;;;5023320;28;20390;-48
2021/12/25 14:02:44;;;;;;;1.00;0.82;;;;;;;;;;5025196;28;20065;-50
2021/12/25 14:05:09;;;;;;;2.60;0.70;;;;;;;;;;5023712;28;20025;-49
2021/12/25 14:07:37;;;;;;;1.38;0.70;;;;;;;;;;5024245;28;20536;-50
2021/12/25 14:10:12;;;;;;;1.27;0.90;;;;;;;;;;5023480;28;20393;-49
2021/12/25 14:12:41;;;;;;;0.70;0.70;;;;;;;;;;5023788;28;20439;-49
2021/12/25 14:15:09;;;;;;;1.30;0.90;;;;;;;;;;5022957;28;20440;-47
2021/12/25 14:17:36;;;;;;;1.38;0.88;;;;;;;;;;5023405;28;20067;-50
2021/12/25 14:20:30;;;;;;;1.27;1.08;;;;;;;;;;5024320;28;20060;-49
2021/12/25 14:23:00;;;;;;;1.25;1.00;;;;;;;;;;5019938;28;20144;-48
2021/12/25 14:25:29;;;;;;;1.60;0.90;;;;;;;;;;5025628;28;20045;-47
2021/12/25 14:28:11;;;;;;;0.88;0.82;;;;;;;;;;5025572;28;20025;-47
2021/12/25 14:30:56;;;;;;;1.58;1.00;;;;;;;;;;5023725;28;20025;-49
2021/12/25 14:33:21;;;;;;;1.10;1.00;;;;;;;;;;5006460;28;20408;-47
2021/12/25 14:35:47;;;;;;;1.27;1.17;;;;;;;;;;5022622;28;20029;-46
2021/12/25 14:38:14;;;;;;;1.65;1.05;;;;;;;;;;5022925;28;20033;-52
2021/12/25 14:40:46;;;;;;;1.40;1.30;;;;;;;;;;5023588;28;20059;-50
2021/12/25 14:43:13;;;;;;;2.58;1.30;;;;;;;;;;5022463;28;20037;-46
2021/12/25 14:45:50;;;;;;;1.65;1.52;;;;;;;;;;5005147;28;20045;-47
2021/12/25 14:48:26;;;;;;;2.53;1.50;;;;;;;;;;5024040;28;20029;-50
2021/12/25 14:51:10;;;;;;;1.60;1.40;;;;;;;;;;5023759;28;20116;-45
2021/12/25 14:53:46;;;;;;;1.52;1.30;;;;;;;;;;5024966;28;20541;-47
2021/12/25 14:56:18;;;;;;;1.65;1.35;;;;;;;;;;5023425;28;20389;-52
2021/12/25 14:58:52;;;;;;;2.45;1.27;;;;;;;;;;5023925;28;20798;-49
2021/12/25 15:01:39;;;;;;;2.17;1.50;;;;;;;;;;5023067;28;20403;-47
2021/12/25 15:04:09;;;;;;;1.90;1.20;;;;;;;;;;5023274;28;20820;-46
2021/12/25 15:06:41;;;;;;;2.33;1.50;;;;;;;;;;5023274;28;20079;-49
2021/12/25 15:09:13;;;;;;;1.98;1.35;;;;;;;;;;5003795;28;20056;-48
2021/12/25 15:11:45;;;;;;;1.70;1.42;;;;;;;;;;5004112;28;20060;-48
2021/12/25 15:14:13;;;;;;;2.53;1.15;;;;;;;;;;5023165;28;20393;-46
2021/12/25 15:16:44;;;;;;;1.13;1.02;;;;;;;;;;5004798;28;20049;-50
2021/12/25 15:19:27;;;;;;;1.13;1.02;;;;;;;;;;5022154;28;20049;-47
2021/12/25 15:21:54;;;;;;;1.20;1.10;;;;;;;;;;5023743;28;20041;-46
2021/12/25 15:24:22;;;;;;;1.30;1.20;;;;;;;;;;5022801;28;20061;-49
2021/12/25 15:26:53;;;;;;;1.30;1.20;;;;;;;;;;5024469;28;20524;-48
2021/12/25 15:29:20;;;;;;;1.70;1.35;;;;;;;;;;5022407;28;20383;-47
2021/12/25 15:31:56;;;;;;;1.92;1.30;;;;;;;;;;5004549;28;20025;-48
2021/12/25 15:34:22;;;;;;;1.55;1.42;;;;;;;;;;5022549;28;20343;-50
2021/12/25 15:36:47;;;;;;;1.52;1.42;;;;;;;;;;5022554;28;20030;-49
2021/12/25 15:39:15;;;;;;;1.80;1.60;;;;;;;;;;5022787;28;20062;-51
2021/12/25 15:41:42;;;;;;;2.40;1.60;;;;;;;;;;5005258;28;20044;-49
2021/12/25 15:44:08;;;;;;;1.98;1.50;;;;;;;;;;5037067;28;20029;-51
2021/12/25 15:46:34;;;;;;;3.63;1.30;;;;;;;;;;5020437;28;20186;-49
2021/12/25 15:48:59;;;;;;;1.50;1.40;;;;;;;;;;5005902;28;20083;-48
2021/12/25 15:51:25;;;;;;;1.73;1.33;;;;;;;;;;5023881;28;20033;-47
2021/12/25 15:53:50;;;;;;;1.23;1.10;;;;;;;;;;5024022;28;20064;-47
2021/12/25 15:56:16;;;;;;;1.33;1.23;;;;;;;;;;5024303;28;20021;-48
2021/12/25 15:58:41;;;;;;;1.92;1.55;;;;;;;;;;5004160;28;20018;-48
2021/12/25 16:01:07;;;;;;;2.45;1.42;;;;;;;;;;5024450;28;20082;-49
2021/12/25 16:03:33;;;;;;;2.20;1.50;;;;;;;;;;5020356;28;20517;-52
2021/12/25 16:06:03;;;;;;;1.70;1.55;;;;;;;;;;5022860;28;20044;-48
2021/12/25 16:08:29;;;;;;;1.50;1.40;;;;;;;;;;5023323;28;20029;-49
2021/12/25 16:10:55;;;;;;;2.08;1.73;;;;;;;;;;5023348;28;20022;-54
2021/12/25 16:13:22;;;;;;;2.70;1.33;;;;;;;;;;5024410;28;20029;-47
2021/12/25 16:15:50;;;;;;;1.60;1.50;;;;;;;;;;5020859;28;20143;-51